Time;durP1;ratioP1;P1;durP2;ratioP2;P2;SDS_P1;SDS_P2;PMS_P1;PMS_P2;Temp;Humidity;BMP_temperature;BMP_pressure;BME280_temperature;BME280_humidity;BME280_pressure;Samples;Min_cycle;Max_cycle;Signal;HPM_P1;HPM_P2
2021/07/30 00:02:07;;;;;;;7.97;7.30;;;15.40;99.90;;;;;;5091904;28;20231;-65
2021/07/30 00:04:33;;;;;;;8.07;7.53;;;15.40;99.90;;;;;;5093033;28;20587;-66
2021/07/30 00:06:58;;;;;;;7.67;7.10;;;15.50;99.90;;;;;;5074706;28;20194;-65
2021/07/30 00:09:24;;;;;;;7.10;6.70;;;15.50;99.90;;;;;;5071588;28;20590;-65
2021/07/30 00:11:49;;;;;;;7.67;6.97;;;15.60;99.90;;;;;;5087366;28;20181;-65
2021/07/30 00:14:15;;;;;;;8.13;7.53;;;15.70;99.90;;;;;;5092705;28;20213;-66
2021/07/30 00:16:41;;;;;;;7.90;7.40;;;15.80;99.90;;;;;;5077901;28;20282;-67
2021/07/30 00:19:06;;;;;;;8.60;7.90;;;15.80;99.90;;;;;;5072510;28;20636;-65
2021/07/30 00:21:32;;;;;;;7.07;6.67;;;15.90;99.90;;;;;;5084376;28;20181;-65
2021/07/30 00:23:58;;;;;;;6.77;6.37;;;15.90;99.90;;;;;;5092630;28;20652;-65
2021/07/30 00:26:23;;;;;;;7.13;6.53;;;15.80;99.90;;;;;;5090466;28;20233;-66
2021/07/30 00:28:49;;;;;;;8.00;7.13;;;15.80;99.90;;;;;;5092492;28;20256;-66
2021/07/30 00:31:15;;;;;;;7.20;6.80;;;15.90;99.90;;;;;;5083607;28;20190;-67
2021/07/30 00:33:41;;;;;;;7.10;6.60;;;15.90;99.90;;;;;;5072261;28;20178;-66
2021/07/30 00:36:06;;;;;;;7.33;6.63;;;16.00;99.90;;;;;;5078447;28;20583;-65
2021/07/30 00:38:32;;;;;;;7.80;7.20;;;16.10;99.90;;;;;;5092499;28;20165;-66
2021/07/30 00:41:00;;;;;;;7.63;7.00;;;16.10;99.90;;;;;;5086764;28;20182;-66
2021/07/30 00:43:26;;;;;;;8.07;7.37;;;16.10;99.90;;;;;;5072101;28;20598;-66
2021/07/30 00:45:53;;;;;;;7.90;7.40;;;16.10;99.90;;;;;;5075105;28;20288;-66
2021/07/30 00:48:20;;;;;;;8.13;7.60;;;16.10;99.90;;;;;;5092198;28;20182;-65
2021/07/30 00:50:47;;;;;;;7.20;6.70;;;16.10;99.90;;;;;;5089437;28;20214;-66
2021/07/30 00:53:13;;;;;;;8.83;6.83;;;16.10;99.90;;;;;;5071877;28;20625;-66
2021/07/30 00:55:40;;;;;;;7.67;6.93;;;16.20;99.90;;;;;;5089081;28;20223;-66
2021/07/30 00:58:06;;;;;;;7.50;6.90;;;16.20;99.90;;;;;;5082497;28;20256;-66
2021/07/30 01:00:32;;;;;;;6.73;6.33;;;16.30;99.90;;;;;;5071946;28;20170;-67
2021/07/30 01:03:00;;;;;;;7.33;6.83;;;16.40;99.90;;;;;;5079057;28;20180;-65
2021/07/30 01:05:30;;;;;;;8.40;7.57;;;16.40;99.90;;;;;;5073645;28;20551;-67
2021/07/30 01:07:57;;;;;;;7.00;6.40;;;16.50;99.90;;;;;;5084853;28;20661;-66
2021/07/30 01:10:23;;;;;;;7.20;6.57;;;16.60;99.90;;;;;;5071571;28;20189;-65
2021/07/30 01:12:49;;;;;;;7.07;6.67;;;16.70;99.90;;;;;;5076558;28;20185;-66
2021/07/30 01:15:14;;;;;;;8.60;7.90;;;16.70;99.90;;;;;;5091736;28;20520;-65
2021/07/30 01:17:40;;;;;;;7.43;6.90;;;16.70;99.90;;;;;;5087616;28;20210;-66
2021/07/30 01:20:10;;;;;;;7.13;6.67;;;16.60;99.90;;;;;;5071422;28;21047;-65
2021/07/30 01:22:59;;;;;;;7.60;6.80;;;16.50;99.90;;;;;;5080572;28;20559;-66
2021/07/30 01:25:27;;;;;;;7.60;7.10;;;16.60;99.90;;;;;;5080681;28;20182;-66
2021/07/30 01:27:54;;;;;;;7.03;6.53;;;16.60;99.90;;;;;;5071476;28;20166;-66
2021/07/30 01:30:22;;;;;;;7.33;6.77;;;16.60;99.90;;;;;;5072580;28;20190;-65
2021/07/30 01:32:48;;;;;;;6.90;6.50;;;16.60;99.90;;;;;;5071398;28;20254;-66
2021/07/30 01:35:14;;;;;;;7.43;6.83;;;16.70;99.90;;;;;;5069835;28;20198;-65
2021/07/30 01:37:41;;;;;;;7.00;6.60;;;16.70;99.90;;;;;;5071118;28;20584;-66
2021/07/30 01:40:07;;;;;;;7.30;6.70;;;16.80;99.90;;;;;;5071633;28;20178;-66
2021/07/30 01:42:33;;;;;;;7.27;6.60;;;16.80;99.90;;;;;;5071379;28;20170;-66
2021/07/30 01:44:59;;;;;;;7.33;6.63;;;16.80;99.90;;;;;;5072403;28;20182;-65
2021/07/30 01:47:26;;;;;;;8.93;6.77;;;16.80;99.90;;;;;;5100416;22;20741;-66
2021/07/30 01:49:52;;;;;;;6.60;6.07;;;16.90;99.90;;;;;;5106053;28;20183;-66
2021/07/30 01:52:18;;;;;;;6.83;6.33;;;17.00;99.90;;;;;;5111835;28;20173;-66
2021/07/30 01:54:44;;;;;;;6.90;6.50;;;17.00;99.90;;;;;;5098224;28;20598;-66
2021/07/30 01:57:11;;;;;;;7.30;6.70;;;17.00;99.90;;;;;;5091166;28;20256;-66
2021/07/30 01:59:37;;;;;;;7.07;6.57;;;17.00;99.90;;;;;;5091317;28;20177;-66
2021/07/30 02:02:03;;;;;;;7.10;6.60;;;17.00;99.90;;;;;;5091380;28;20572;-66
2021/07/30 02:04:29;;;;;;;7.00;6.50;;;17.00;99.90;;;;;;5091254;28;20177;-66
2021/07/30 02:06:55;;;;;;;7.17;6.77;;;17.00;99.90;;;;;;5091454;28;20243;-69
2021/07/30 02:09:20;;;;;;;7.47;6.83;;;16.90;99.90;;;;;;5092074;28;20181;-70
2021/07/30 02:11:53;;;;;;;7.00;6.50;;;16.70;99.90;;;;;;5074112;28;20181;-67
2021/07/30 02:14:20;;;;;;;7.40;7.00;;;16.50;99.90;;;;;;5092059;28;20166;-69
2021/07/30 02:16:50;;;;;;;7.07;6.67;;;16.30;99.90;;;;;;5091710;28;20205;-67
2021/07/30 02:19:17;;;;;;;7.87;7.20;;;16.10;99.90;;;;;;5074230;28;20524;-69
2021/07/30 02:21:45;;;;;;;7.30;6.77;;;16.00;99.90;;;;;;5092119;28;20161;-69
2021/07/30 02:24:10;;;;;;;7.73;7.03;;;15.90;99.90;;;;;;5092132;28;20628;-70
2021/07/30 02:26:36;;;;;;;7.17;6.67;;;15.70;99.90;;;;;;5091863;28;20275;-71
2021/07/30 02:29:03;;;;;;;7.40;6.90;;;15.60;99.90;;;;;;5092179;28;20177;-71
2021/07/30 02:31:29;;;;;;;7.53;7.03;;;15.40;99.90;;;;;;5074103;28;20174;-71
2021/07/30 02:33:55;;;;;;;6.90;6.50;;;15.40;99.90;;;;;;5094784;28;20536;-75
2021/07/30 02:36:20;;;;;;;7.40;6.80;;;15.30;99.90;;;;;;5095426;28;20259;-71
2021/07/30 02:38:46;;;;;;;7.97;7.47;;;15.20;99.90;;;;;;5077546;28;20215;-72
2021/07/30 02:41:12;;;;;;;8.70;8.20;;;15.10;99.90;;;;;;5095749;28;20177;-72
2021/07/30 02:43:39;;;;;;;8.43;7.73;;;15.00;99.90;;;;;;5077731;28;20267;-71
2021/07/30 02:46:04;;;;;;;7.93;7.40;;;14.80;99.90;;;;;;5076722;28;20559;-69
2021/07/30 02:48:30;;;;;;;7.97;7.33;;;14.80;99.90;;;;;;5095333;28;20176;-70
2021/07/30 02:50:56;;;;;;;7.53;7.03;;;14.70;99.90;;;;;;5095225;28;20433;-67
2021/07/30 02:53:22;;;;;;;10.67;7.97;;;14.60;99.90;;;;;;5094996;28;20306;-67
2021/07/30 02:55:48;;;;;;;8.20;7.50;;;14.50;99.90;;;;;;5042935;28;20212;-65
2021/07/30 02:58:14;;;;;;;8.50;7.83;;;14.50;99.90;;;;;;5059255;28;20227;-65
2021/07/30 03:00:40;;;;;;;8.47;7.40;;;14.40;99.90;;;;;;5076148;28;20165;-66
2021/07/30 03:03:06;;;;;;;8.37;7.67;;;14.40;99.90;;;;;;5075675;28;20540;-64
2021/07/30 03:05:32;;;;;;;8.80;8.10;;;14.40;99.90;;;;;;5075752;28;20181;-65
2021/07/30 03:07:58;;;;;;;8.23;7.63;;;14.30;99.90;;;;;;5093543;28;20244;-65
2021/07/30 03:10:24;;;;;;;7.40;6.73;;;14.30;99.90;;;;;;5094059;28;20173;-65
2021/07/30 03:12:49;;;;;;;7.00;6.50;;;14.30;99.90;;;;;;5075491;28;20205;-65
2021/07/30 03:15:15;;;;;;;8.20;7.33;;;14.30;99.90;;;;;;5093785;28;20254;-65
2021/07/30 03:17:41;;;;;;;8.20;7.60;;;14.30;99.90;;;;;;5093303;28;20193;-65
2021/07/30 03:20:07;;;;;;;8.67;7.90;;;14.20;99.90;;;;;;5093877;28;20182;-65
2021/07/30 03:22:34;;;;;;;7.87;7.20;;;14.20;99.90;;;;;;5075369;28;20179;-65
2021/07/30 03:25:00;;;;;;;7.97;7.37;;;14.20;99.90;;;;;;5093624;28;20249;-65
2021/07/30 03:27:26;;;;;;;8.17;7.37;;;14.20;99.90;;;;;;5092979;28;20235;-65
2021/07/30 03:29:52;;;;;;;8.50;7.80;;;14.10;99.90;;;;;;5093767;28;20668;-65
2021/07/30 03:32:18;;;;;;;7.83;7.17;;;14.10;99.90;;;;;;5093431;28;20178;-65
2021/07/30 03:34:45;;;;;;;8.00;7.40;;;14.10;99.90;;;;;;5093630;28;20692;-65
2021/07/30 03:37:14;;;;;;;8.50;7.67;;;14.00;99.90;;;;;;5092759;28;20745;-65
2021/07/30 03:39:40;;;;;;;7.40;6.90;;;14.00;99.90;;;;;;5093475;28;20226;-65
2021/07/30 03:42:06;;;;;;;8.93;8.03;;;13.90;99.90;;;;;;5093091;28;20715;-65
2021/07/30 03:44:32;;;;;;;8.30;7.70;;;13.90;99.90;;;;;;5093841;28;20205;-65
2021/07/30 03:46:58;;;;;;;8.33;7.73;;;13.90;99.90;;;;;;5092426;28;20243;-65
2021/07/30 03:49:23;;;;;;;7.77;7.30;;;13.90;99.90;;;;;;5093391;28;20233;-65
2021/07/30 03:51:49;;;;;;;9.27;8.57;;;13.90;99.90;;;;;;5093195;28;20173;-65
2021/07/30 03:54:15;;;;;;;9.57;8.87;;;13.80;99.90;;;;;;5093335;28;20177;-65
2021/07/30 03:56:41;;;;;;;9.53;8.73;;;13.80;99.90;;;;;;5092615;28;20215;-65
2021/07/30 03:59:07;;;;;;;8.13;7.60;;;13.80;99.90;;;;;;5092969;28;20169;-65
2021/07/30 04:01:34;;;;;;;8.73;8.03;;;13.80;99.90;;;;;;5092983;28;20299;-65
2021/07/30 04:03:59;;;;;;;7.83;7.33;;;13.80;99.90;;;;;;5093065;28;20174;-65
2021/07/30 04:06:25;;;;;;;8.77;7.67;;;13.80;99.90;;;;;;5092417;28;20208;-65
2021/07/30 04:08:50;;;;;;;8.30;7.70;;;13.80;99.90;;;;;;5092997;28;20174;-65
2021/07/30 04:11:16;;;;;;;8.30;7.70;;;13.80;99.90;;;;;;5092537;28;20339;-65
2021/07/30 04:13:42;;;;;;;8.60;7.90;;;13.80;99.90;;;;;;5092977;28;20181;-65
2021/07/30 04:16:08;;;;;;;8.80;8.10;;;13.80;99.90;;;;;;5074048;28;20205;-65
2021/07/30 04:18:34;;;;;;;8.43;7.73;;;13.90;99.90;;;;;;5092960;28;20170;-65
2021/07/30 04:21:04;;;;;;;8.80;8.20;;;13.80;99.90;;;;;;5092543;28;20219;-65
2021/07/30 04:23:29;;;;;;;8.83;8.03;;;13.90;99.90;;;;;;5074338;28;20227;-65
2021/07/30 04:25:55;;;;;;;8.30;7.67;;;13.90;99.90;;;;;;5092449;28;20181;-65
2021/07/30 04:28:21;;;;;;;8.93;7.73;;;13.90;99.90;;;;;;5092670;28;20199;-65
2021/07/30 04:30:46;;;;;;;9.73;7.10;;;13.90;99.90;;;;;;5092250;28;20222;-65
2021/07/30 04:33:12;;;;;;;12.00;8.20;;;14.00;99.90;;;;;;5092444;28;20541;-65
2021/07/30 04:35:38;;;;;;;8.27;7.77;;;14.00;99.90;;;;;;5092026;28;20197;-65
2021/07/30 04:38:04;;;;;;;9.57;8.00;;;14.00;99.90;;;;;;5091978;28;20647;-65
2021/07/30 04:40:29;;;;;;;8.10;7.40;;;13.90;99.90;;;;;;5092467;28;20172;-65
2021/07/30 04:42:55;;;;;;;8.87;8.07;;;14.00;99.90;;;;;;5092153;28;20197;-65
2021/07/30 04:45:21;;;;;;;8.10;7.50;;;14.00;99.90;;;;;;5092352;28;20713;-65
2021/07/30 04:47:47;;;;;;;8.80;8.20;;;14.00;99.90;;;;;;5091687;28;20209;-65
2021/07/30 04:50:12;;;;;;;8.63;8.03;;;14.10;99.90;;;;;;5092121;28;20177;-65
2021/07/30 04:52:39;;;;;;;9.10;8.27;;;14.20;99.90;;;;;;5092055;28;20235;-65
2021/07/30 04:55:05;;;;;;;10.43;7.57;;;14.30;99.90;;;;;;5091433;28;20247;-65
2021/07/30 04:57:30;;;;;;;8.43;7.83;;;14.30;99.90;;;;;;5091573;28;20826;-65
2021/07/30 04:59:56;;;;;;;7.50;6.97;;;14.50;99.90;;;;;;5092141;28;20169;-65
2021/07/30 05:02:21;;;;;;;8.50;7.90;;;14.60;99.90;;;;;;5091766;28;20177;-65
2021/07/30 05:04:47;;;;;;;7.77;7.17;;;14.70;99.90;;;;;;5073859;28;20177;-65
2021/07/30 05:07:13;;;;;;;9.43;8.17;;;14.70;99.90;;;;;;5090354;28;20193;-65
2021/07/30 05:09:39;;;;;;;7.50;6.80;;;14.90;99.90;;;;;;5091777;28;20170;-65
2021/07/30 05:12:05;;;;;;;9.57;7.57;;;15.00;99.90;;;;;;5091865;28;20222;-65
2021/07/30 05:14:30;;;;;;;7.23;6.73;;;15.00;99.90;;;;;;5091768;28;20254;-65
2021/07/30 05:16:56;;;;;;;8.03;7.53;;;15.10;99.90;;;;;;5091336;28;20457;-65
2021/07/30 05:19:21;;;;;;;8.57;7.60;;;15.10;99.90;;;;;;5091638;28;20184;-65
2021/07/30 05:21:47;;;;;;;8.53;8.03;;;15.20;99.90;;;;;;5091974;28;20173;-64
2021/07/30 05:24:13;;;;;;;9.70;9.00;;;15.10;99.90;;;;;;5091507;28;20214;-65
2021/07/30 05:26:39;;;;;;;8.83;8.00;;;15.20;99.90;;;;;;5091313;28;20264;-65
2021/07/30 05:29:08;;;;;;;10.47;9.67;;;15.30;99.90;;;;;;5091563;28;20222;-65
2021/07/30 05:31:34;;;;;;;9.90;9.13;;;15.30;99.90;;;;;;5091634;28;20169;-65
2021/07/30 05:34:00;;;;;;;8.07;7.53;;;15.40;99.90;;;;;;5091611;28;20603;-65
2021/07/30 05:36:25;;;;;;;8.40;7.60;;;15.40;99.90;;;;;;5091119;28;20699;-64
2021/07/30 05:38:51;;;;;;;8.37;7.73;;;15.40;99.90;;;;;;5071595;28;20216;-64
2021/07/30 05:41:17;;;;;;;7.70;7.10;;;15.60;99.90;;;;;;5071375;28;20231;-65
2021/07/30 05:43:44;;;;;;;7.43;6.93;;;15.70;99.90;;;;;;5090263;28;20169;-65
2021/07/30 05:46:10;;;;;;;8.47;7.63;;;16.00;99.90;;;;;;5088317;28;20201;-64
2021/07/30 05:48:35;;;;;;;8.17;7.47;;;16.30;99.90;;;;;;5088359;28;20181;-64
2021/07/30 05:51:01;;;;;;;8.00;7.30;;;16.70;99.90;;;;;;5091569;28;20351;-65
2021/07/30 05:53:27;;;;;;;7.60;7.03;;;17.20;99.90;;;;;;5091458;28;20830;-65
2021/07/30 05:55:53;;;;;;;7.30;6.70;;;17.40;99.90;;;;;;5091066;28;20276;-65
2021/07/30 05:58:18;;;;;;;7.30;6.70;;;17.50;99.90;;;;;;5091082;28;20177;-65
2021/07/30 06:00:44;;;;;;;7.27;6.53;;;17.50;99.90;;;;;;5091485;28;20165;-65
2021/07/30 06:03:09;;;;;;;7.17;6.47;;;17.60;99.90;;;;;;5090796;28;20204;-65
2021/07/30 06:05:35;;;;;;;7.30;6.80;;;17.80;99.90;;;;;;5091566;28;20173;-65
2021/07/30 06:08:05;;;;;;;7.50;7.00;;;17.90;99.90;;;;;;5092615;28;20197;-65
2021/07/30 06:10:32;;;;;;;6.83;6.37;;;18.10;99.90;;;;;;5095215;28;20178;-65
2021/07/30 06:12:57;;;;;;;6.83;6.27;;;18.30;99.90;;;;;;5094824;28;20190;-64
2021/07/30 06:15:23;;;;;;;7.10;6.43;;;18.60;99.90;;;;;;5095071;28;20276;-66
2021/07/30 06:17:53;;;;;;;6.83;6.17;;;19.00;99.90;;;;;;5094369;28;20193;-65
2021/07/30 06:20:19;;;;;;;7.13;6.67;;;19.40;99.90;;;;;;5094910;28;20175;-65
2021/07/30 06:22:45;;;;;;;8.00;6.97;;;19.80;99.90;;;;;;5094843;28;20182;-65
2021/07/30 06:25:12;;;;;;;11.03;6.57;;;20.20;99.90;;;;;;5094742;28;20173;-65
2021/07/30 06:27:38;;;;;;;9.53;6.37;;;20.40;99.90;;;;;;5094425;28;20884;-65
2021/07/30 06:30:06;;;;;;;6.35;5.80;;;20.50;99.90;;;;;;5094813;28;20230;-65
2021/07/30 06:32:32;;;;;;;6.72;5.97;;;20.70;99.90;;;;;;5094645;28;20189;-65
2021/07/30 06:34:57;;;;;;;7.00;6.32;;;20.90;99.90;;;;;;5094627;28;20836;-65
2021/07/30 06:37:23;;;;;;;6.72;6.05;;;21.00;99.90;;;;;;5094001;28;20209;-65
2021/07/30 06:39:49;;;;;;;5.95;5.55;;;21.10;99.90;;;;;;5094681;28;20176;-65
2021/07/30 06:42:15;;;;;;;6.32;5.88;;;21.00;99.90;;;;;;5094271;28;20583;-65
2021/07/30 06:44:40;;;;;;;7.10;6.43;;;20.80;99.90;;;;;;5094482;28;20170;-65
2021/07/30 06:47:06;;;;;;;5.90;5.40;;;20.90;99.90;;;;;;5093869;28;20405;-65
2021/07/30 06:49:36;;;;;;;5.53;5.10;;;21.30;99.90;;;;;;5094544;28;20200;-65
2021/07/30 06:52:04;;;;;;;5.97;5.10;;;21.60;99.90;;;;;;5094030;28;20181;-65
2021/07/30 06:54:33;;;;;;;5.25;4.78;;;21.80;99.90;;;;;;5094383;28;20538;-65
2021/07/30 06:57:02;;;;;;;6.00;5.60;;;21.80;99.90;;;;;;5093634;28;20589;-65
2021/07/30 06:59:27;;;;;;;5.75;5.28;;;21.80;99.90;;;;;;5094225;28;20663;-65
2021/07/30 07:01:53;;;;;;;6.43;5.88;;;21.70;99.90;;;;;;5094076;28;20173;-65
2021/07/30 07:04:19;;;;;;;6.30;6.00;;;21.30;99.90;;;;;;5094049;28;20175;-65
2021/07/30 07:06:47;;;;;;;6.00;5.60;;;21.20;99.90;;;;;;5093612;28;20208;-65
2021/07/30 07:09:17;;;;;;;5.47;5.07;;;21.50;99.90;;;;;;5093912;28;20203;-65
2021/07/30 07:11:43;;;;;;;4.70;4.50;;;22.00;99.90;;;;;;5093824;28;20680;-65
2021/07/30 07:14:08;;;;;;;5.65;5.25;;;22.80;99.90;;;;;;5093952;28;20199;-65
2021/07/30 07:16:34;;;;;;;5.30;4.90;;;23.60;99.90;;;;;;5093351;28;20601;-65
2021/07/30 07:19:00;;;;;;;5.00;4.60;;;23.80;99.90;;;;;;5093511;28;20539;-65
2021/07/30 07:21:25;;;;;;;5.00;4.60;;;23.90;99.90;;;;;;5093493;28;20212;-65
2021/07/30 07:23:51;;;;;;;4.85;4.50;;;23.70;99.90;;;;;;5093888;28;20176;-65
2021/07/30 07:26:17;;;;;;;5.20;4.80;;;24.00;99.90;;;;;;5093030;28;20201;-65
2021/07/30 07:28:44;;;;;;;4.93;4.63;;;24.30;99.90;;;;;;5093848;28;20201;-65
2021/07/30 07:31:10;;;;;;;5.85;5.22;;;24.50;99.90;;;;;;5091793;28;20582;-65
2021/07/30 07:33:35;;;;;;;4.70;4.40;;;24.60;99.90;;;;;;5093510;28;20256;-65
2021/07/30 07:36:01;;;;;;;5.15;4.80;;;24.70;99.90;;;;;;5092869;28;20205;-65
2021/07/30 07:38:27;;;;;;;6.80;4.57;;;24.70;99.90;;;;;;5093490;28;20173;-65
2021/07/30 07:40:53;;;;;;;4.82;4.57;;;24.80;99.90;;;;;;5093628;28;20168;-65
2021/07/30 07:43:18;;;;;;;4.75;4.38;;;24.80;99.90;;;;;;5093022;28;20174;-65
2021/07/30 07:45:44;;;;;;;5.47;5.15;;;24.90;99.90;;;;;;5093084;28;20235;-65
2021/07/30 07:48:10;;;;;;;5.85;5.45;;;25.20;99.90;;;;;;5093630;28;20189;-65
2021/07/30 07:50:35;;;;;;;5.75;5.35;;;25.50;99.90;;;;;;5092439;28;20178;-65
2021/07/30 07:53:01;;;;;;;5.75;5.25;;;25.70;99.90;;;;;;5092462;28;20491;-65
2021/07/30 07:55:27;;;;;;;4.95;4.63;;;26.20;99.90;;;;;;5092612;28;20198;-66
2021/07/30 07:57:52;;;;;;;4.60;4.30;;;26.30;99.90;;;;;;5092906;28;20200;-65
2021/07/30 08:00:18;;;;;;;5.45;5.05;;;26.30;99.90;;;;;;5092300;28;20235;-65
2021/07/30 08:02:43;;;;;;;5.53;4.60;;;26.30;99.90;;;;;;5092827;28;20184;-65
2021/07/30 08:05:10;;;;;;;4.78;4.38;;;26.30;99.90;;;;;;5092365;28;20178;-65
2021/07/30 08:07:35;;;;;;;4.97;4.60;;;25.90;99.90;;;;;;5092683;28;20193;-66
2021/07/30 08:10:01;;;;;;;6.28;5.38;;;25.90;99.90;;;;;;5092907;28;20182;-65
2021/07/30 08:12:27;;;;;;;4.10;3.90;;;26.10;99.90;;;;;;5092763;28;20171;-65
2021/07/30 08:14:52;;;;;;;4.50;4.10;;;26.30;99.90;;;;;;5093042;28;20219;-65
2021/07/30 08:17:18;;;;;;;4.60;4.20;;;26.40;99.90;;;;;;5091468;28;20197;-66
2021/07/30 08:19:47;;;;;;;4.93;4.63;;;26.70;99.90;;;;;;5092774;28;20169;-65
2021/07/30 08:22:13;;;;;;;5.10;4.80;;;26.90;99.90;;;;;;5092667;28;20162;-65
2021/07/30 08:24:39;;;;;;;5.57;5.07;;;27.00;99.90;;;;;;5092631;28;20204;-65
2021/07/30 08:27:10;;;;;;;4.85;4.55;;;27.00;99.90;;;;;;5092222;28;20209;-65
2021/07/30 08:29:35;;;;;;;5.10;4.80;;;27.10;99.90;;;;;;5092355;28;20172;-65
2021/07/30 08:32:01;;;;;;;5.15;4.85;;;27.10;99.90;;;;;;5092134;28;20540;-65
2021/07/30 08:34:26;;;;;;;4.85;4.50;;;27.10;99.90;;;;;;5092517;28;20659;-65
2021/07/30 08:36:52;;;;;;;4.93;4.50;;;27.30;99.90;;;;;;5092173;28;20255;-65
2021/07/30 08:39:18;;;;;;;5.07;4.70;;;27.50;99.90;;;;;;5092203;28;20177;-65
2021/07/30 08:41:44;;;;;;;4.75;4.45;;;28.10;99.90;;;;;;5092456;28;20162;-66
2021/07/30 08:44:10;;;;;;;4.25;3.95;;;28.70;99.90;;;;;;5092283;28;20173;-65
2021/07/30 08:46:36;;;;;;;4.40;4.20;;;29.00;99.90;;;;;;5091822;28;20283;-65
2021/07/30 08:49:05;;;;;;;4.68;4.40;;;29.00;99.90;;;;;;5092295;28;20209;-65
2021/07/30 08:51:33;;;;;;;4.43;4.10;;;29.20;99.90;;;;;;5092189;28;20218;-65
2021/07/30 08:53:59;;;;;;;4.68;4.47;;;29.20;99.90;;;;;;5092126;28;20520;-65
2021/07/30 08:56:25;;;;;;;4.75;4.53;;;29.30;99.90;;;;;;5091586;28;20293;-65
2021/07/30 08:58:51;;;;;;;5.28;4.22;;;29.30;99.90;;;;;;5092162;28;20603;-65
2021/07/30 09:01:16;;;;;;;4.78;4.50;;;29.30;99.90;;;;;;5091894;28;20173;-65
2021/07/30 09:03:44;;;;;;;6.25;5.85;;;29.30;99.90;;;;;;5092040;28;20249;-66
2021/07/30 09:06:19;;;;;;;6.57;4.50;;;29.20;99.90;;;;;;5091529;28;20200;-65
2021/07/30 09:09:03;;;;;;;5.78;4.55;;;29.10;99.90;;;;;;5092037;28;20179;-65
2021/07/30 09:11:36;;;;;;;5.75;5.35;;;28.90;99.90;;;;;;5091909;28;20578;-66
2021/07/30 09:14:04;;;;;;;4.60;4.30;;;29.00;99.90;;;;;;5091785;28;20173;-66
2021/07/30 09:16:30;;;;;;;4.47;4.20;;;29.30;99.90;;;;;;5091461;28;20205;-65
2021/07/30 09:19:05;;;;;;;4.63;4.32;;;29.50;99.90;;;;;;5092018;28;20161;-65
2021/07/30 09:21:33;;;;;;;4.70;4.35;;;29.60;99.90;;;;;;5091696;28;20173;-65
2021/07/30 09:24:09;;;;;;;5.20;4.88;;;29.10;99.90;;;;;;5091565;28;20219;-66
2021/07/30 09:26:40;;;;;;;5.60;5.20;;;28.90;99.90;;;;;;5091574;28;20192;-65
2021/07/30 09:29:10;;;;;;;4.90;4.60;;;29.20;99.90;;;;;;5091389;28;20169;-65
2021/07/30 09:31:49;;;;;;;5.47;4.97;;;29.30;99.90;;;;;;5091641;28;20186;-65
2021/07/30 09:34:47;;;;;;;4.63;4.32;;;29.50;99.90;;;;;;5091842;28;20181;-65
2021/07/30 09:37:23;;;;;;;4.95;4.65;;;29.90;99.90;;;;;;5080974;28;20756;-66
2021/07/30 09:39:51;;;;;;;5.72;5.30;;;29.80;99.90;;;;;;5091552;28;20682;-65
2021/07/30 09:42:28;;;;;;;4.53;4.15;;;29.70;99.90;;;;;;5086739;28;20751;-66
2021/07/30 09:45:03;;;;;;;5.80;5.43;;;29.60;99.90;;;;;;5094981;28;20553;-66
2021/07/30 09:47:33;;;;;;;5.20;4.85;;;29.60;99.90;;;;;;5093518;28;20215;-65
2021/07/30 09:50:00;;;;;;;4.65;4.35;;;29.60;99.90;;;;;;5094447;28;20260;-66
2021/07/30 09:52:27;;;;;;;4.80;4.50;;;29.80;99.90;;;;;;5095309;28;20215;-65
2021/07/30 09:54:55;;;;;;;5.28;4.90;;;29.70;99.90;;;;;;5095414;28;20242;-66
2021/07/30 09:57:23;;;;;;;5.75;5.45;;;29.40;99.90;;;;;;5094767;28;20205;-66
2021/07/30 09:59:50;;;;;;;5.68;5.28;;;28.80;99.90;;;;;;5094730;28;20554;-65
2021/07/30 10:02:20;;;;;;;5.32;4.85;;;28.40;99.90;;;;;;5094612;28;20170;-65
2021/07/30 10:04:48;;;;;;;5.15;4.85;;;28.50;99.90;;;;;;5094826;28;20184;-66
2021/07/30 10:07:16;;;;;;;5.30;4.90;;;29.00;99.90;;;;;;5094489;28;20677;-66
2021/07/30 10:09:45;;;;;;;4.57;4.28;;;29.40;99.90;;;;;;5095769;28;20169;-66
2021/07/30 10:12:11;;;;;;;4.97;4.68;;;29.40;99.90;;;;;;5094754;28;20315;-65
2021/07/30 10:14:37;;;;;;;4.95;4.65;;;29.60;99.90;;;;;;5095339;28;20642;-66
2021/07/30 10:17:03;;;;;;;5.05;4.10;;;30.30;99.90;;;;;;5094456;28;20228;-66
2021/07/30 10:19:32;;;;;;;4.55;4.05;;;30.70;99.90;;;;;;5094569;28;20177;-66
2021/07/30 10:22:01;;;;;;;5.07;4.65;;;31.00;99.90;;;;;;5094494;28;20262;-66
2021/07/30 10:24:29;;;;;;;7.47;5.20;;;31.20;99.90;;;;;;5095024;28;20169;-65
2021/07/30 10:27:02;;;;;;;5.18;4.88;;;31.40;99.90;;;;;;5094256;28;20227;-65
2021/07/30 10:30:04;;;;;;;5.78;5.30;;;31.40;99.90;;;;;;5094253;28;20173;-66
2021/07/30 10:32:49;;;;;;;4.90;4.60;;;31.10;99.90;;;;;;5093518;28;20188;-65
2021/07/30 10:35:17;;;;;;;5.03;4.72;;;30.90;99.90;;;;;;5093956;28;20699;-65
2021/07/30 10:37:45;;;;;;;5.30;4.90;;;31.10;99.90;;;;;;5094464;28;20217;-66
2021/07/30 10:40:24;;;;;;;5.05;4.85;;;31.10;99.90;;;;;;5093775;28;20264;-66
2021/07/30 10:43:09;;;;;;;5.25;4.85;;;31.50;99.90;;;;;;5093917;28;20181;-66
2021/07/30 10:45:42;;;;;;;4.85;4.50;;;31.40;99.90;;;;;;5094142;28;20184;-66
2021/07/30 10:48:14;;;;;;;5.68;5.38;;;30.90;99.90;;;;;;5094293;28;20185;-66
2021/07/30 10:50:44;;;;;;;5.25;4.85;;;30.60;99.90;;;;;;5094143;28;20183;-66
2021/07/30 10:53:36;;;;;;;5.18;4.88;;;30.70;99.90;;;;;;5092930;28;20536;-65
2021/07/30 10:56:04;;;;;;;5.13;4.82;;;30.40;99.90;;;;;;5085017;28;20308;-66
2021/07/30 10:58:52;;;;;;;4.70;4.28;;;30.10;99.90;;;;;;5093545;28;20264;-66
2021/07/30 11:01:41;;;;;;;5.45;4.40;;;30.00;99.90;;;;;;5093758;28;20182;-66
2021/07/30 11:04:07;;;;;;;6.10;5.43;;;29.70;99.90;;;;;;5080642;28;20234;-66
2021/07/30 11:06:39;;;;;;;5.38;5.05;;;29.30;99.90;;;;;;5093653;28;20204;-65
2021/07/30 11:09:04;;;;;;;5.13;4.82;;;29.10;99.90;;;;;;5093958;28;20181;-66
2021/07/30 11:11:55;;;;;;;5.15;4.78;;;29.10;99.90;;;;;;5093414;28;20695;-65
2021/07/30 11:14:27;;;;;;;6.25;5.95;;;29.40;99.90;;;;;;5085353;28;20191;-66
2021/07/30 11:16:59;;;;;;;5.32;5.03;;;29.20;99.90;;;;;;5093631;28;20201;-65
2021/07/30 11:19:27;;;;;;;4.75;4.45;;;29.70;99.90;;;;;;5076231;28;20964;-66
2021/07/30 11:21:54;;;;;;;5.32;4.75;;;30.20;99.90;;;;;;5093283;28;20295;-65
2021/07/30 11:24:20;;;;;;;4.32;4.10;;;30.50;99.90;;;;;;5093647;28;20207;-65
2021/07/30 11:26:46;;;;;;;4.78;4.47;;;30.60;99.90;;;;;;5093458;28;20238;-65
2021/07/30 11:29:14;;;;;;;5.63;5.10;;;30.70;99.90;;;;;;5093368;28;20173;-65
2021/07/30 11:31:53;;;;;;;4.88;4.45;;;31.20;99.90;;;;;;5093577;28;20551;-66
2021/07/30 11:34:49;;;;;;;4.90;4.53;;;31.80;99.90;;;;;;5093836;28;20602;-66
2021/07/30 11:37:17;;;;;;;5.10;4.63;;;32.10;99.90;;;;;;5075405;28;20232;-66
2021/07/30 11:39:48;;;;;;;6.07;5.68;;;32.10;99.90;;;;;;5093780;28;20577;-65
2021/07/30 11:42:20;;;;;;;4.10;3.90;;;31.70;99.90;;;;;;5092680;28;20644;-65
2021/07/30 11:44:49;;;;;;;5.05;4.53;;;31.20;99.90;;;;;;5093316;28;20201;-65
2021/07/30 11:47:16;;;;;;;4.20;4.00;;;31.00;99.90;;;;;;5092034;28;20213;-66
2021/07/30 11:49:45;;;;;;;4.85;4.50;;;31.20;99.90;;;;;;5093338;28;20207;-65
2021/07/30 11:52:17;;;;;;;4.90;4.60;;;31.70;99.90;;;;;;5074822;28;20550;-65
2021/07/30 11:54:43;;;;;;;4.40;4.13;;;31.90;99.90;;;;;;5092724;28;20207;-65
2021/07/30 11:57:08;;;;;;;4.60;4.35;;;31.90;99.90;;;;;;5074345;28;20209;-65
2021/07/30 11:59:47;;;;;;;5.18;4.68;;;31.80;99.90;;;;;;5093347;28;20534;-66
2021/07/30 12:02:14;;;;;;;4.88;4.47;;;31.50;99.90;;;;;;5092652;28;20674;-65
2021/07/30 12:04:51;;;;;;;4.82;4.43;;;31.10;99.90;;;;;;5092762;28;20181;-65
2021/07/30 12:07:19;;;;;;;4.38;4.00;;;31.00;99.90;;;;;;5092369;28;20201;-65
2021/07/30 12:09:48;;;;;;;5.28;4.88;;;30.90;99.90;;;;;;5093057;28;20588;-66
2021/07/30 12:12:14;;;;;;;58.22;14.80;;;31.20;99.90;;;;;;5092515;28;20173;-65
2021/07/30 12:14:45;;;;;;;4.47;4.18;;;31.50;99.90;;;;;;5092971;28;20547;-65
2021/07/30 12:17:13;;;;;;;5.38;5.07;;;31.50;99.90;;;;;;5092446;28;20207;-66
2021/07/30 12:19:39;;;;;;;4.75;4.35;;;31.50;99.90;;;;;;5092802;28;20200;-65
2021/07/30 12:22:07;;;;;;;4.75;4.35;;;31.60;99.90;;;;;;5092514;28;20565;-66
2021/07/30 12:24:34;;;;;;;5.13;4.72;;;31.40;99.90;;;;;;5092979;28;20582;-66
2021/07/30 12:27:20;;;;;;;5.15;4.85;;;31.10;99.90;;;;;;5080116;28;20223;-66
2021/07/30 12:29:48;;;;;;;4.18;3.90;;;31.00;99.90;;;;;;5072642;28;20734;-65
2021/07/30 12:32:25;;;;;;;6.15;5.70;;;30.90;99.90;;;;;;5072559;28;20173;-67
2021/07/30 12:35:06;;;;;;;5.47;5.05;;;30.60;99.90;;;;;;5058632;28;20561;-66
2021/07/30 12:37:33;;;;;;;5.43;5.13;;;30.10;99.90;;;;;;5092279;28;20197;-65
2021/07/30 12:40:02;;;;;;;5.63;5.32;;;30.00;99.90;;;;;;5092326;28;20176;-65
2021/07/30 12:42:34;;;;;;;5.82;5.43;;;30.30;99.90;;;;;;5092143;28;20250;-65
2021/07/30 12:45:03;;;;;;;4.97;4.57;;;30.90;99.90;;;;;;5092151;28;20165;-65
2021/07/30 12:47:28;;;;;;;5.43;5.03;;;30.80;99.90;;;;;;5091363;28;20262;-65
2021/07/30 12:49:55;;;;;;;5.63;5.32;;;30.60;99.90;;;;;;5092331;28;20173;-65